sensor_id;sensor_type;location;lat;lon;timestamp;pressure;altitude;pressure_sealevel;temperature;humidity
10988;BME280;5547;42.672;23.230;2022-09-02T00:01:45;93179.16;;;16.15;90.88
10988;BME280;5547;42.672;23.230;2022-09-02T00:04:19;93176.78;;;16.17;91.13
10988;BME280;5547;42.672;23.230;2022-09-02T00:06:45;93185.59;;;16.17;91.04
10988;BME280;5547;42.672;23.230;2022-09-02T00:09:13;93177.69;;;16.23;90.73
10988;BME280;5547;42.672;23.230;2022-09-02T00:11:41;93066.25;;;15.41;91.78
10988;BME280;5547;42.672;23.230;2022-09-02T00:14:11;93189.78;;;16.28;91.20
10988;BME280;5547;42.672;23.230;2022-09-02T00:16:38;93191.13;;;16.32;90.85
10988;BME280;5547;42.672;23.230;2022-09-02T00:19:06;93136.63;;;15.95;91.07
10988;BME280;5547;42.672;23.230;2022-09-02T00:21:32;93197.84;;;16.37;90.73
10988;BME280;5547;42.672;23.230;2022-09-02T00:24:00;93200.69;;;16.43;89.81
10988;BME280;5547;42.672;23.230;2022-09-02T00:26:25;93143.72;;;16.20;89.76
10988;BME280;5547;42.672;23.230;2022-09-02T00:28:52;93171.19;;;16.61;88.19
10988;BME280;5547;42.672;23.230;2022-09-02T00:31:17;93081.22;;;16.20;86.36
10988;BME280;5547;42.672;23.230;2022-09-02T00:33:43;93123.75;;;16.30;89.17
10988;BME280;5547;42.672;23.230;2022-09-02T00:36:09;93177.47;;;16.67;89.02
10988;BME280;5547;42.672;23.230;2022-09-02T00:38:35;93192.41;;;16.77;89.07
10988;BME280;5547;42.672;23.230;2022-09-02T00:41:05;93191.81;;;16.73;88.69
10988;BME280;5547;42.672;23.230;2022-09-02T00:43:53;93133.56;;;16.33;88.70
10988;BME280;5547;42.672;23.230;2022-09-02T00:46:21;93197.63;;;16.72;89.00
10988;BME280;5547;42.672;23.230;2022-09-02T00:48:57;93196.16;;;16.71;89.63
10988;BME280;5547;42.672;23.230;2022-09-02T00:51:25;93190.03;;;16.79;88.75
10988;BME280;5547;42.672;23.230;2022-09-02T00:53:52;93140.47;;;16.53;86.60
10988;BME280;5547;42.672;23.230;2022-09-02T00:56:25;93197.06;;;16.95;87.23
10988;BME280;5547;42.672;23.230;2022-09-02T00:58:53;93181.41;;;16.85;86.36
10988;BME280;5547;42.672;23.230;2022-09-02T01:01:20;93189.59;;;16.81;86.70
10988;BME280;5547;42.672;23.230;2022-09-02T01:03:47;93220.22;;;17.11;85.79
10988;BME280;5547;42.672;23.230;2022-09-02T01:06:12;93144.06;;;16.59;85.30
10988;BME280;5547;42.672;23.230;2022-09-02T01:08:43;93221.84;;;17.18;86.72
10988;BME280;5547;42.672;23.230;2022-09-02T01:11:10;93216.91;;;17.16;86.83
10988;BME280;5547;42.672;23.230;2022-09-02T01:13:39;93226.78;;;17.19;87.38
10988;BME280;5547;42.672;23.230;2022-09-02T01:16:13;93226.03;;;17.19;87.73
10988;BME280;5547;42.672;23.230;2022-09-02T01:18:42;93149.44;;;16.59;88.16
10988;BME280;5547;42.672;23.230;2022-09-02T01:21:09;93168.25;;;16.77;87.51
10988;BME280;5547;42.672;23.230;2022-09-02T01:23:35;93141.09;;;16.57;88.38
10988;BME280;5547;42.672;23.230;2022-09-02T01:26:02;93222.44;;;17.04;88.44
10988;BME280;5547;42.672;23.230;2022-09-02T01:28:29;93209.28;;;16.78;89.11
10988;BME280;5547;42.672;23.230;2022-09-02T01:30:57;93221.25;;;16.95;89.00
10988;BME280;5547;42.672;23.230;2022-09-02T01:33:23;93198.94;;;16.58;91.25
10988;BME280;5547;42.672;23.230;2022-09-02T01:35:49;93189.34;;;16.29;93.48
10988;BME280;5547;42.672;23.230;2022-09-02T01:38:15;93181.09;;;16.14;93.63
10988;BME280;5547;42.672;23.230;2022-09-02T01:40:41;93160.91;;;15.91;93.44
10988;BME280;5547;42.672;23.230;2022-09-02T01:43:13;93191.47;;;16.03;93.51
10988;BME280;5547;42.672;23.230;2022-09-02T01:45:41;93069.72;;;15.20;93.55
10988;BME280;5547;42.672;23.230;2022-09-02T01:48:07;93147.97;;;15.68;93.68
10988;BME280;5547;42.672;23.230;2022-09-02T01:50:35;93156.22;;;15.73;92.92
10988;BME280;5547;42.672;23.230;2022-09-02T01:53:01;93049.53;;;14.75;94.09
10988;BME280;5547;42.672;23.230;2022-09-02T01:55:28;93161.00;;;15.57;94.97
10988;BME280;5547;42.672;23.230;2022-09-02T01:57:54;93160.53;;;15.49;96.50
10988;BME280;5547;42.672;23.230;2022-09-02T02:00:20;93116.72;;;15.11;95.85
10988;BME280;5547;42.672;23.230;2022-09-02T02:02:46;93130.47;;;15.23;96.00
10988;BME280;5547;42.672;23.230;2022-09-02T02:05:11;93157.53;;;15.47;95.22
10988;BME280;5547;42.672;23.230;2022-09-02T02:07:38;93154.06;;;15.37;95.79
10988;BME280;5547;42.672;23.230;2022-09-02T02:10:04;93165.38;;;15.32;95.33
10988;BME280;5547;42.672;23.230;2022-09-02T02:12:30;93145.72;;;15.35;95.43
10988;BME280;5547;42.672;23.230;2022-09-02T02:14:56;93103.53;;;14.95;96.78
10988;BME280;5547;42.672;23.230;2022-09-02T02:17:21;93149.56;;;15.34;96.83
10988;BME280;5547;42.672;23.230;2022-09-02T02:19:47;93147.34;;;15.32;96.07
10988;BME280;5547;42.672;23.230;2022-09-02T02:22:12;93141.25;;;15.32;96.66
10988;BME280;5547;42.672;23.230;2022-09-02T02:24:38;93023.19;;;14.51;96.97
10988;BME280;5547;42.672;23.230;2022-09-02T02:27:03;93105.00;;;14.96;97.38
10988;BME280;5547;42.672;23.230;2022-09-02T02:29:29;93119.09;;;15.09;98.14
10988;BME280;5547;42.672;23.230;2022-09-02T02:31:54;93147.47;;;15.29;98.00
10988;BME280;5547;42.672;23.230;2022-09-02T02:34:20;93064.34;;;14.66;98.73
10988;BME280;5547;42.672;23.230;2022-09-02T02:36:45;93153.44;;;15.33;99.84
10988;BME280;5547;42.672;23.230;2022-09-02T02:39:11;93128.44;;;15.05;100.00
10988;BME280;5547;42.672;23.230;2022-09-02T02:41:38;93129.22;;;15.15;99.98
10988;BME280;5547;42.672;23.230;2022-09-02T02:44:04;93135.00;;;15.13;98.89
10988;BME280;5547;42.672;23.230;2022-09-02T02:46:30;93158.81;;;15.33;98.96
10988;BME280;5547;42.672;23.230;2022-09-02T02:48:58;93161.91;;;15.31;100.00
10988;BME280;5547;42.672;23.230;2022-09-02T02:51:24;93087.63;;;14.79;99.76
10988;BME280;5547;42.672;23.230;2022-09-02T02:53:49;93119.03;;;15.00;100.00
10988;BME280;5547;42.672;23.230;2022-09-02T02:56:15;93160.69;;;15.23;100.00
10988;BME280;5547;42.672;23.230;2022-09-02T02:58:41;93158.44;;;15.22;100.00
10988;BME280;5547;42.672;23.230;2022-09-02T03:01:06;93151.41;;;15.15;100.00
10988;BME280;5547;42.672;23.230;2022-09-02T03:03:32;93166.16;;;15.20;100.00
10988;BME280;5547;42.672;23.230;2022-09-02T03:05:58;93158.81;;;15.11;100.00
10988;BME280;5547;42.672;23.230;2022-09-02T03:08:23;93151.34;;;15.06;100.00
10988;BME280;5547;42.672;23.230;2022-09-02T03:10:50;93156.69;;;15.06;100.00
10988;BME280;5547;42.672;23.230;2022-09-02T03:13:18;93135.34;;;14.93;100.00
10988;BME280;5547;42.672;23.230;2022-09-02T03:15:44;93166.41;;;15.12;100.00
10988;BME280;5547;42.672;23.230;2022-09-02T03:18:09;93107.88;;;14.80;100.00
10988;BME280;5547;42.672;23.230;2022-09-02T03:20:35;93151.22;;;15.09;100.00
10988;BME280;5547;42.672;23.230;2022-09-02T03:23:01;93133.28;;;14.97;100.00
10988;BME280;5547;42.672;23.230;2022-09-02T03:25:29;93127.00;;;14.91;100.00
10988;BME280;5547;42.672;23.230;2022-09-02T03:27:55;93161.53;;;15.20;100.00
10988;BME280;5547;42.672;23.230;2022-09-02T03:30:24;93168.53;;;15.18;100.00
10988;BME280;5547;42.672;23.230;2022-09-02T03:32:51;93075.88;;;14.76;100.00
10988;BME280;5547;42.672;23.230;2022-09-02T03:35:19;93159.56;;;15.33;100.00
10988;BME280;5547;42.672;23.230;2022-09-02T03:37:46;93153.56;;;15.29;100.00
10988;BME280;5547;42.672;23.230;2022-09-02T03:40:15;93164.44;;;15.26;100.00
10988;BME280;5547;42.672;23.230;2022-09-02T03:42:42;93172.56;;;15.22;100.00
10988;BME280;5547;42.672;23.230;2022-09-02T03:45:10;93177.81;;;15.26;100.00
10988;BME280;5547;42.672;23.230;2022-09-02T03:47:36;93143.44;;;15.02;100.00
10988;BME280;5547;42.672;23.230;2022-09-02T03:50:04;93174.66;;;15.18;100.00
10988;BME280;5547;42.672;23.230;2022-09-02T03:52:31;93175.50;;;15.15;100.00
10988;BME280;5547;42.672;23.230;2022-09-02T03:54:57;93192.31;;;15.16;100.00
10988;BME280;5547;42.672;23.230;2022-09-02T03:57:22;93186.44;;;15.21;100.00
10988;BME280;5547;42.672;23.230;2022-09-02T03:59:50;93150.34;;;14.90;100.00
10988;BME280;5547;42.672;23.230;2022-09-02T04:02:15;93155.72;;;14.90;100.00
10988;BME280;5547;42.672;23.230;2022-09-02T04:04:41;93196.94;;;15.15;100.00
10988;BME280;5547;42.672;23.230;2022-09-02T04:07:06;93158.09;;;14.76;100.00
10988;BME280;5547;42.672;23.230;2022-09-02T04:09:32;93195.72;;;15.07;100.00
10988;BME280;5547;42.672;23.230;2022-09-02T04:11:57;93211.22;;;15.12;100.00
10988;BME280;5547;42.672;23.230;2022-09-02T04:14:23;93204.34;;;15.11;100.00
10988;BME280;5547;42.672;23.230;2022-09-02T04:16:48;93216.25;;;15.10;100.00
10988;BME280;5547;42.672;23.230;2022-09-02T04:19:14;93217.31;;;15.12;100.00
10988;BME280;5547;42.672;23.230;2022-09-02T04:21:40;93222.41;;;15.20;100.00
10988;BME280;5547;42.672;23.230;2022-09-02T04:24:08;93212.19;;;15.05;100.00
10988;BME280;5547;42.672;23.230;2022-09-02T04:26:34;93228.03;;;15.12;100.00
10988;BME280;5547;42.672;23.230;2022-09-02T04:29:00;93201.41;;;14.96;100.00
10988;BME280;5547;42.672;23.230;2022-09-02T04:31:26;93223.31;;;15.17;100.00
10988;BME280;5547;42.672;23.230;2022-09-02T04:33:56;93222.88;;;15.18;100.00
10988;BME280;5547;42.672;23.230;2022-09-02T04:36:22;93207.16;;;15.07;100.00
10988;BME280;5547;42.672;23.230;2022-09-02T04:38:50;93175.97;;;14.79;100.00
10988;BME280;5547;42.672;23.230;2022-09-02T04:41:21;93223.63;;;15.19;100.00
10988;BME280;5547;42.672;23.230;2022-09-02T04:43:48;93234.97;;;15.23;100.00
10988;BME280;5547;42.672;23.230;2022-09-02T04:46:15;93214.13;;;15.05;100.00
10988;BME280;5547;42.672;23.230;2022-09-02T04:48:41;93209.53;;;15.05;100.00
10988;BME280;5547;42.672;23.230;2022-09-02T04:51:09;93136.88;;;14.59;100.00
10988;BME280;5547;42.672;23.230;2022-09-02T04:53:35;93239.50;;;15.35;100.00
10988;BME280;5547;42.672;23.230;2022-09-02T04:56:08;93221.13;;;15.02;100.00
10988;BME280;5547;42.672;23.230;2022-09-02T04:58:35;93243.69;;;15.36;100.00
10988;BME280;5547;42.672;23.230;2022-09-02T05:01:13;93190.47;;;15.03;100.00
10988;BME280;5547;42.672;23.230;2022-09-02T05:03:40;93154.69;;;14.75;100.00
10988;BME280;5547;42.672;23.230;2022-09-02T05:06:07;93204.56;;;15.17;100.00
10988;BME280;5547;42.672;23.230;2022-09-02T05:08:33;93249.25;;;15.42;100.00
10988;BME280;5547;42.672;23.230;2022-09-02T05:11:19;93188.97;;;15.02;100.00
10988;BME280;5547;42.672;23.230;2022-09-02T05:13:47;93227.34;;;15.43;100.00
10988;BME280;5547;42.672;23.230;2022-09-02T05:16:18;93254.47;;;15.67;100.00
10988;BME280;5547;42.672;23.230;2022-09-02T05:18:45;93254.03;;;15.69;100.00
10988;BME280;5547;42.672;23.230;2022-09-02T05:21:11;93237.59;;;15.58;100.00
10988;BME280;5547;42.672;23.230;2022-09-02T05:23:37;93260.34;;;15.75;100.00
10988;BME280;5547;42.672;23.230;2022-09-02T05:26:04;93260.41;;;15.84;100.00
10988;BME280;5547;42.672;23.230;2022-09-02T05:28:30;93204.66;;;15.57;100.00
10988;BME280;5547;42.672;23.230;2022-09-02T05:31:05;93212.88;;;15.63;100.00
10988;BME280;5547;42.672;23.230;2022-09-02T05:33:32;93213.50;;;15.67;100.00
10988;BME280;5547;42.672;23.230;2022-09-02T05:35:57;93252.75;;;16.05;100.00
10988;BME280;5547;42.672;23.230;2022-09-02T05:38:23;93254.72;;;16.13;100.00
10988;BME280;5547;42.672;23.230;2022-09-02T05:40:49;93251.03;;;16.20;100.00
10988;BME280;5547;42.672;23.230;2022-09-02T05:43:15;93246.00;;;16.31;100.00
10988;BME280;5547;42.672;23.230;2022-09-02T05:45:41;93175.31;;;15.85;98.97
10988;BME280;5547;42.672;23.230;2022-09-02T05:48:06;93241.53;;;16.37;99.74
10988;BME280;5547;42.672;23.230;2022-09-02T05:50:52;93192.56;;;16.15;99.05
10988;BME280;5547;42.672;23.230;2022-09-02T05:53:18;93243.53;;;16.55;99.05
10988;BME280;5547;42.672;23.230;2022-09-02T05:55:43;93241.28;;;16.54;97.11
10988;BME280;5547;42.672;23.230;2022-09-02T05:58:09;93209.63;;;16.39;97.47
10988;BME280;5547;42.672;23.230;2022-09-02T06:00:34;93145.88;;;16.03;96.50
10988;BME280;5547;42.672;23.230;2022-09-02T06:03:01;93230.03;;;16.77;95.71
10988;BME280;5547;42.672;23.230;2022-09-02T06:05:26;93239.00;;;16.84;94.99
10988;BME280;5547;42.672;23.230;2022-09-02T06:07:52;93241.38;;;16.82;95.09
10988;BME280;5547;42.672;23.230;2022-09-02T06:10:17;93212.09;;;16.65;95.27
10988;BME280;5547;42.672;23.230;2022-09-02T06:12:43;93243.47;;;16.96;94.84
10988;BME280;5547;42.672;23.230;2022-09-02T06:15:09;93187.63;;;16.72;94.76
10988;BME280;5547;42.672;23.230;2022-09-02T06:17:35;93241.56;;;17.15;94.18
10988;BME280;5547;42.672;23.230;2022-09-02T06:20:00;93244.09;;;17.09;94.60
10988;BME280;5547;42.672;23.230;2022-09-02T06:22:26;93221.13;;;17.08;93.25
10988;BME280;5547;42.672;23.230;2022-09-02T06:24:51;93250.50;;;17.30;92.81
10988;BME280;5547;42.672;23.230;2022-09-02T06:27:17;93247.09;;;17.39;92.68
10988;BME280;5547;42.672;23.230;2022-09-02T06:29:43;93246.03;;;17.55;91.77
10988;BME280;5547;42.672;23.230;2022-09-02T06:32:10;93245.59;;;17.56;92.27
10988;BME280;5547;42.672;23.230;2022-09-02T06:34:35;93242.13;;;17.56;91.16
10988;BME280;5547;42.672;23.230;2022-09-02T06:37:03;93249.16;;;17.62;92.47
10988;BME280;5547;42.672;23.230;2022-09-02T06:39:29;93249.63;;;17.61;91.88
10988;BME280;5547;42.672;23.230;2022-09-02T06:41:54;93220.47;;;17.59;92.02
10988;BME280;5547;42.672;23.230;2022-09-02T06:44:20;93250.31;;;17.80;91.83
10988;BME280;5547;42.672;23.230;2022-09-02T06:46:54;93259.56;;;17.79;91.94
10988;BME280;5547;42.672;23.230;2022-09-02T06:49:22;93267.97;;;17.72;91.61
10988;BME280;5547;42.672;23.230;2022-09-02T06:51:50;93245.28;;;17.63;91.44
10988;BME280;5547;42.672;23.230;2022-09-02T06:54:18;93269.13;;;17.98;92.20
10988;BME280;5547;42.672;23.230;2022-09-02T06:56:44;93236.72;;;17.65;92.07
10988;BME280;5547;42.672;23.230;2022-09-02T06:59:10;93271.66;;;18.02;89.40
10988;BME280;5547;42.672;23.230;2022-09-02T07:01:36;93270.50;;;17.94;89.89
10988;BME280;5547;42.672;23.230;2022-09-02T07:04:02;93273.59;;;18.11;91.38
10988;BME280;5547;42.672;23.230;2022-09-02T07:06:49;93278.31;;;18.25;88.07
10988;BME280;5547;42.672;23.230;2022-09-02T07:09:19;93279.03;;;18.44;89.95
10988;BME280;5547;42.672;23.230;2022-09-02T07:11:45;93241.22;;;18.29;89.84
10988;BME280;5547;42.672;23.230;2022-09-02T07:14:17;93275.69;;;18.49;82.86
10988;BME280;5547;42.672;23.230;2022-09-02T07:16:51;93288.50;;;18.63;84.52
10988;BME280;5547;42.672;23.230;2022-09-02T07:19:18;93281.13;;;18.73;83.92
10988;BME280;5547;42.672;23.230;2022-09-02T07:21:45;93264.03;;;18.85;82.75
10988;BME280;5547;42.672;23.230;2022-09-02T07:24:12;93279.63;;;18.81;81.28
10988;BME280;5547;42.672;23.230;2022-09-02T07:26:39;93282.59;;;19.07;84.69
10988;BME280;5547;42.672;23.230;2022-09-02T07:29:06;93262.25;;;19.06;83.94
10988;BME280;5547;42.672;23.230;2022-09-02T07:31:35;93283.03;;;19.30;82.72
10988;BME280;5547;42.672;23.230;2022-09-02T07:34:02;93245.59;;;19.08;81.03
10988;BME280;5547;42.672;23.230;2022-09-02T07:36:28;93267.47;;;19.49;81.09
10988;BME280;5547;42.672;23.230;2022-09-02T07:38:54;93239.44;;;19.31;77.22
10988;BME280;5547;42.672;23.230;2022-09-02T07:41:21;93214.69;;;19.18;81.94
10988;BME280;5547;42.672;23.230;2022-09-02T07:43:47;93281.88;;;19.46;81.76
10988;BME280;5547;42.672;23.230;2022-09-02T07:46:13;93278.41;;;19.69;76.76
10988;BME280;5547;42.672;23.230;2022-09-02T07:48:39;93233.13;;;19.35;79.13
10988;BME280;5547;42.672;23.230;2022-09-02T07:51:05;93233.69;;;19.39;77.55
10988;BME280;5547;42.672;23.230;2022-09-02T07:53:31;93289.53;;;19.62;78.43
10988;BME280;5547;42.672;23.230;2022-09-02T07:55:58;93291.28;;;20.04;79.04
10988;BME280;5547;42.672;23.230;2022-09-02T07:58:24;93286.81;;;20.01;80.91
10988;BME280;5547;42.672;23.230;2022-09-02T08:00:51;93295.47;;;20.20;80.29
10988;BME280;5547;42.672;23.230;2022-09-02T08:03:17;93302.34;;;20.06;76.41
10988;BME280;5547;42.672;23.230;2022-09-02T08:05:43;93245.66;;;19.23;77.57
10988;BME280;5547;42.672;23.230;2022-09-02T08:08:12;93306.47;;;19.63;76.88
10988;BME280;5547;42.672;23.230;2022-09-02T08:10:38;93310.78;;;19.69;78.52
10988;BME280;5547;42.672;23.230;2022-09-02T08:13:06;93307.72;;;19.77;82.07
10988;BME280;5547;42.672;23.230;2022-09-02T08:15:33;93261.25;;;19.58;77.75
10988;BME280;5547;42.672;23.230;2022-09-02T08:18:00;93240.44;;;19.19;82.71
10988;BME280;5547;42.672;23.230;2022-09-02T08:20:26;93301.22;;;19.44;83.24
10988;BME280;5547;42.672;23.230;2022-09-02T08:22:51;93315.38;;;19.54;80.82
10988;BME280;5547;42.672;23.230;2022-09-02T08:25:17;93242.13;;;18.93;78.04
10988;BME280;5547;42.672;23.230;2022-09-02T08:27:43;93314.38;;;19.27;78.40
10988;BME280;5547;42.672;23.230;2022-09-02T08:30:10;93295.78;;;19.29;79.14
10988;BME280;5547;42.672;23.230;2022-09-02T08:32:37;93307.91;;;19.49;81.24
10988;BME280;5547;42.672;23.230;2022-09-02T08:35:04;93265.78;;;19.13;78.16
10988;BME280;5547;42.672;23.230;2022-09-02T08:37:31;93303.53;;;19.37;79.23
10988;BME280;5547;42.672;23.230;2022-09-02T08:39:57;93283.75;;;19.55;79.08
10988;BME280;5547;42.672;23.230;2022-09-02T08:42:34;93305.59;;;19.81;78.90
10988;BME280;5547;42.672;23.230;2022-09-02T08:45:16;93308.88;;;19.85;75.90
10988;BME280;5547;42.672;23.230;2022-09-02T08:47:47;93283.91;;;19.75;79.25
10988;BME280;5547;42.672;23.230;2022-09-02T08:50:16;93298.81;;;20.00;77.21
10988;BME280;5547;42.672;23.230;2022-09-02T08:52:44;93301.09;;;19.78;73.62
10988;BME280;5547;42.672;23.230;2022-09-02T08:55:18;93298.16;;;19.76;76.64
10988;BME280;5547;42.672;23.230;2022-09-02T08:57:45;93277.22;;;20.00;76.61
10988;BME280;5547;42.672;23.230;2022-09-02T09:00:11;93241.19;;;19.73;75.98
10988;BME280;5547;42.672;23.230;2022-09-02T09:02:46;93214.53;;;19.51;74.49
10988;BME280;5547;42.672;23.230;2022-09-02T09:08:46;93295.53;;;19.96;74.50
10988;BME280;5547;42.672;23.230;2022-09-02T09:21:35;93291.38;;;19.95;76.04
10988;BME280;5547;42.672;23.230;2022-09-02T09:26:44;93290.50;;;19.89;77.56
10988;BME280;5547;42.672;23.230;2022-09-02T09:29:11;93273.41;;;19.92;74.40
10988;BME280;5547;42.672;23.230;2022-09-02T09:31:38;93288.28;;;20.62;69.09
10988;BME280;5547;42.672;23.230;2022-09-02T09:34:05;93284.16;;;20.66;67.98
10988;BME280;5547;42.672;23.230;2022-09-02T09:39:27;93285.66;;;20.52;68.05
10988;BME280;5547;42.672;23.230;2022-09-02T09:42:11;93283.13;;;20.49;71.25
10988;BME280;5547;42.672;23.230;2022-09-02T09:47:20;93242.06;;;20.45;70.30
10988;BME280;5547;42.672;23.230;2022-09-02T09:49:52;93252.59;;;20.58;68.75
10988;BME280;5547;42.672;23.230;2022-09-02T09:52:25;93247.34;;;20.54;68.85
10988;BME280;5547;42.672;23.230;2022-09-02T09:57:43;93277.16;;;20.95;67.46
10988;BME280;5547;42.672;23.230;2022-09-02T10:00:13;93241.81;;;20.78;66.38
10988;BME280;5547;42.672;23.230;2022-09-02T10:02:46;93257.84;;;21.02;67.04
10988;BME280;5547;42.672;23.230;2022-09-02T10:07:59;93270.22;;;21.50;65.28
10988;BME280;5547;42.672;23.230;2022-09-02T10:10:27;93232.63;;;21.31;63.41
10988;BME280;5547;42.672;23.230;2022-09-02T10:12:57;93284.94;;;20.87;66.79
10988;BME280;5547;42.672;23.230;2022-09-02T10:15:38;93271.59;;;21.19;66.39
10988;BME280;5547;42.672;23.230;2022-09-02T10:18:39;93271.31;;;20.96;66.74
10988;BME280;5547;42.672;23.230;2022-09-02T10:22:01;93276.59;;;21.06;66.73
10988;BME280;5547;42.672;23.230;2022-09-02T10:30:20;93271.63;;;21.04;69.39
10988;BME280;5547;42.672;23.230;2022-09-02T10:36:05;93274.94;;;21.14;65.39
10988;BME280;5547;42.672;23.230;2022-09-02T10:38:31;93242.09;;;21.01;66.22
10988;BME280;5547;42.672;23.230;2022-09-02T10:46:08;93235.34;;;21.11;67.28
10988;BME280;5547;42.672;23.230;2022-09-02T10:49:01;93271.72;;;21.10;66.02
10988;BME280;5547;42.672;23.230;2022-09-02T10:51:47;93274.38;;;21.71;66.56
10988;BME280;5547;42.672;23.230;2022-09-02T10:57:07;93242.59;;;21.92;66.35
10988;BME280;5547;42.672;23.230;2022-09-02T11:02:27;93207.59;;;22.20;61.69
10988;BME280;5547;42.672;23.230;2022-09-02T11:04:59;93264.94;;;22.77;61.91
10988;BME280;5547;42.672;23.230;2022-09-02T11:07:35;93262.09;;;22.97;63.13
10988;BME280;5547;42.672;23.230;2022-09-02T11:10:12;93234.63;;;22.41;61.98
10988;BME280;5547;42.672;23.230;2022-09-02T11:12:47;93254.91;;;23.48;58.76
10988;BME280;5547;42.672;23.230;2022-09-02T11:15:18;93254.81;;;23.26;60.80
10988;BME280;5547;42.672;23.230;2022-09-02T11:18:12;93225.66;;;22.61;63.39
10988;BME280;5547;42.672;23.230;2022-09-02T11:20:55;93245.50;;;22.84;61.62
10988;BME280;5547;42.672;23.230;2022-09-02T11:23:33;93246.41;;;22.32;63.54
10988;BME280;5547;42.672;23.230;2022-09-02T11:26:15;93250.63;;;22.39;65.48
10988;BME280;5547;42.672;23.230;2022-09-02T11:28:51;93252.38;;;22.42;64.58
10988;BME280;5547;42.672;23.230;2022-09-02T11:31:32;93252.00;;;23.03;60.92
10988;BME280;5547;42.672;23.230;2022-09-02T11:36:25;93207.50;;;23.27;60.91
10988;BME280;5547;42.672;23.230;2022-09-02T11:39:05;93244.97;;;23.23;61.98
10988;BME280;5547;42.672;23.230;2022-09-02T11:41:58;93246.63;;;23.15;61.45
10988;BME280;5547;42.672;23.230;2022-09-02T11:53:25;93222.19;;;22.60;60.48
10988;BME280;5547;42.672;23.230;2022-09-02T11:56:03;93230.25;;;22.49;63.03
10988;BME280;5547;42.672;23.230;2022-09-02T12:03:30;93196.19;;;23.57;59.02
10988;BME280;5547;42.672;23.230;2022-09-02T12:06:13;93208.97;;;23.28;59.32
10988;BME280;5547;42.672;23.230;2022-09-02T12:11:05;93170.31;;;22.04;64.20
10988;BME280;5547;42.672;23.230;2022-09-02T12:13:40;93217.41;;;22.44;65.51
10988;BME280;5547;42.672;23.230;2022-09-02T12:21:24;93066.88;;;22.37;60.18
10988;BME280;5547;42.672;23.230;2022-09-02T12:26:29;93189.69;;;23.20;59.79
10988;BME280;5547;42.672;23.230;2022-09-02T12:31:47;93208.84;;;23.77;57.88
10988;BME280;5547;42.672;23.230;2022-09-02T12:42:22;93169.50;;;23.33;58.13
10988;BME280;5547;42.672;23.230;2022-09-02T12:47:52;93179.34;;;23.19;58.82
10988;BME280;5547;42.672;23.230;2022-09-02T12:53:20;93189.13;;;22.51;62.91
10988;BME280;5547;42.672;23.230;2022-09-02T12:58:23;93146.47;;;22.45;59.84
10988;BME280;5547;42.672;23.230;2022-09-02T13:01:08;93156.69;;;22.24;61.73
10988;BME280;5547;42.672;23.230;2022-09-02T13:04:11;93183.22;;;22.20;61.83
10988;BME280;5547;42.672;23.230;2022-09-02T13:07:19;93176.03;;;22.12;62.97
10988;BME280;5547;42.672;23.230;2022-09-02T13:10:20;93142.78;;;21.48;64.71
10988;BME280;5547;42.672;23.230;2022-09-02T13:15:22;93137.25;;;21.10;66.92
10988;BME280;5547;42.672;23.230;2022-09-02T13:26:46;93182.56;;;19.74;81.02
10988;BME280;5547;42.672;23.230;2022-09-02T13:34:45;93191.31;;;19.00;88.41
10988;BME280;5547;42.672;23.230;2022-09-02T13:37:39;93195.09;;;18.94;90.69
10988;BME280;5547;42.672;23.230;2022-09-02T13:42:52;93220.00;;;18.88;91.34
10988;BME280;5547;42.672;23.230;2022-09-02T13:45:24;93146.00;;;18.41;87.62
10988;BME280;5547;42.672;23.230;2022-09-02T13:47:53;93205.88;;;18.94;87.04
10988;BME280;5547;42.672;23.230;2022-09-02T13:50:24;93023.19;;;17.72;86.23
10988;BME280;5547;42.672;23.230;2022-09-02T13:52:56;93096.88;;;18.08;89.01
10988;BME280;5547;42.672;23.230;2022-09-02T13:55:23;93199.50;;;18.58;91.43
10988;BME280;5547;42.672;23.230;2022-09-02T13:58:03;93200.28;;;18.49;90.59
10988;BME280;5547;42.672;23.230;2022-09-02T14:00:40;93205.22;;;18.51;89.90
10988;BME280;5547;42.672;23.230;2022-09-02T14:03:17;93183.06;;;18.56;87.56
10988;BME280;5547;42.672;23.230;2022-09-02T14:05:45;93202.47;;;18.60;88.53
10988;BME280;5547;42.672;23.230;2022-09-02T14:08:14;93203.22;;;18.60;88.48
10988;BME280;5547;42.672;23.230;2022-09-02T14:10:40;93193.97;;;18.52;88.81
10988;BME280;5547;42.672;23.230;2022-09-02T14:13:09;93186.69;;;18.43;89.22
10988;BME280;5547;42.672;23.230;2022-09-02T14:15:35;93210.97;;;18.67;89.23
10988;BME280;5547;42.672;23.230;2022-09-02T14:18:18;93214.31;;;18.86;86.45
10988;BME280;5547;42.672;23.230;2022-09-02T14:20:56;93215.63;;;18.67;90.60
10988;BME280;5547;42.672;23.230;2022-09-02T14:23:23;93235.66;;;18.66;91.02
10988;BME280;5547;42.672;23.230;2022-09-02T14:25:57;93206.63;;;18.37;91.99
10988;BME280;5547;42.672;23.230;2022-09-02T14:28:28;93227.03;;;18.53;93.48
10988;BME280;5547;42.672;23.230;2022-09-02T14:31:06;93206.56;;;18.46;92.17
10988;BME280;5547;42.672;23.230;2022-09-02T14:33:44;93238.56;;;18.86;90.22
10988;BME280;5547;42.672;23.230;2022-09-02T14:39:09;93243.88;;;18.96;86.98
10988;BME280;5547;42.672;23.230;2022-09-02T14:42:04;93227.47;;;18.60;89.36
10988;BME280;5547;42.672;23.230;2022-09-02T14:44:33;93123.00;;;17.83;89.37
10988;BME280;5547;42.672;23.230;2022-09-02T14:47:05;93266.31;;;18.68;87.02
10988;BME280;5547;42.672;23.230;2022-09-02T14:49:37;93262.88;;;18.68;85.89
10988;BME280;5547;42.672;23.230;2022-09-02T14:52:16;93259.34;;;18.53;87.42
10988;BME280;5547;42.672;23.230;2022-09-02T14:54:45;93262.19;;;18.58;90.50
10988;BME280;5547;42.672;23.230;2022-09-02T14:57:34;93187.72;;;18.22;87.83
10988;BME280;5547;42.672;23.230;2022-09-02T15:00:12;93265.25;;;18.75;88.14
10988;BME280;5547;42.672;23.230;2022-09-02T15:02:41;93204.59;;;18.22;87.10
10988;BME280;5547;42.672;23.230;2022-09-02T15:05:10;93242.53;;;18.34;88.59
10988;BME280;5547;42.672;23.230;2022-09-02T15:07:39;93241.88;;;18.15;87.08